sensor_id;sensor_type;location;lat;lon;timestamp;temperature;humidity
9383;DHT22;4731;49.708;10.816;2022-12-01T00:00:31;2.80;99.90
9383;DHT22;4731;49.708;10.816;2022-12-01T00:02:59;2.80;99.90
9383;DHT22;4731;49.708;10.816;2022-12-01T00:05:26;2.80;99.90
9383;DHT22;4731;49.708;10.816;2022-12-01T00:07:52;2.80;99.90
9383;DHT22;4731;49.708;10.816;2022-12-01T00:10:19;2.70;99.90
9383;DHT22;4731;49.708;10.816;2022-12-01T00:12:51;2.70;99.90
9383;DHT22;4731;49.708;10.816;2022-12-01T00:15:18;2.70;99.90
9383;DHT22;4731;49.708;10.816;2022-12-01T00:17:45;1.30;99.90
9383;DHT22;4731;49.708;10.816;2022-12-01T00:20:14;2.70;99.90
9383;DHT22;4731;49.708;10.816;2022-12-01T00:22:42;2.70;99.90
9383;DHT22;4731;49.708;10.816;2022-12-01T00:25:09;2.70;99.90
9383;DHT22;4731;49.708;10.816;2022-12-01T00:27:35;2.70;99.90
9383;DHT22;4731;49.708;10.816;2022-12-01T00:30:03;2.70;99.90
9383;DHT22;4731;49.708;10.816;2022-12-01T00:32:30;2.70;99.90
9383;DHT22;4731;49.708;10.816;2022-12-01T00:34:57;5.50;99.90
9383;DHT22;4731;49.708;10.816;2022-12-01T00:37:26;2.80;99.90
9383;DHT22;4731;49.708;10.816;2022-12-01T00:39:54;2.70;99.90
9383;DHT22;4731;49.708;10.816;2022-12-01T00:42:21;2.70;99.90
9383;DHT22;4731;49.708;10.816;2022-12-01T00:47:15;2.80;99.90
9383;DHT22;4731;49.708;10.816;2022-12-01T00:49:41;2.70;99.90
9383;DHT22;4731;49.708;10.816;2022-12-01T00:52:10;2.80;99.90
9383;DHT22;4731;49.708;10.816;2022-12-01T00:54:39;2.80;99.90
9383;DHT22;4731;49.708;10.816;2022-12-01T00:57:06;2.70;99.90
9383;DHT22;4731;49.708;10.816;2022-12-01T00:59:33;2.80;99.90
9383;DHT22;4731;49.708;10.816;2022-12-01T01:02:00;2.80;99.90
9383;DHT22;4731;49.708;10.816;2022-12-01T01:04:29;2.80;99.90
9383;DHT22;4731;49.708;10.816;2022-12-01T01:06:55;2.80;99.90
9383;DHT22;4731;49.708;10.816;2022-12-01T01:09:22;2.70;99.90
9383;DHT22;4731;49.708;10.816;2022-12-01T01:11:51;2.70;99.90
9383;DHT22;4731;49.708;10.816;2022-12-01T01:14:19;2.70;99.90
9383;DHT22;4731;49.708;10.816;2022-12-01T01:16:46;2.70;99.90
9383;DHT22;4731;49.708;10.816;2022-12-01T01:19:13;2.70;99.90
9383;DHT22;4731;49.708;10.816;2022-12-01T01:21:39;2.70;99.90
9383;DHT22;4731;49.708;10.816;2022-12-01T01:24:06;5.10;99.90
9383;DHT22;4731;49.708;10.816;2022-12-01T01:26:33;2.60;99.90
9383;DHT22;4731;49.708;10.816;2022-12-01T01:29:04;4.70;99.90
9383;DHT22;4731;49.708;10.816;2022-12-01T01:31:32;2.70;99.90
9383;DHT22;4731;49.708;10.816;2022-12-01T01:34:00;2.70;99.90
9383;DHT22;4731;49.708;10.816;2022-12-01T01:36:27;2.70;99.90
9383;DHT22;4731;49.708;10.816;2022-12-01T01:38:55;2.70;99.90
9383;DHT22;4731;49.708;10.816;2022-12-01T01:41:23;2.60;99.90
9383;DHT22;4731;49.708;10.816;2022-12-01T01:43:51;2.70;99.90
9383;DHT22;4731;49.708;10.816;2022-12-01T01:46:22;2.70;99.90
9383;DHT22;4731;49.708;10.816;2022-12-01T01:48:52;2.60;99.90
9383;DHT22;4731;49.708;10.816;2022-12-01T01:51:24;2.70;99.90
9383;DHT22;4731;49.708;10.816;2022-12-01T01:53:55;3.60;99.90
9383;DHT22;4731;49.708;10.816;2022-12-01T01:56:24;2.60;99.90
9383;DHT22;4731;49.708;10.816;2022-12-01T01:58:51;2.60;99.90
9383;DHT22;4731;49.708;10.816;2022-12-01T02:01:19;2.60;99.90
9383;DHT22;4731;49.708;10.816;2022-12-01T02:03:46;2.60;99.90
9383;DHT22;4731;49.708;10.816;2022-12-01T02:06:14;2.60;99.90
9383;DHT22;4731;49.708;10.816;2022-12-01T02:08:41;2.60;99.90
9383;DHT22;4731;49.708;10.816;2022-12-01T02:11:21;2.60;99.90
9383;DHT22;4731;49.708;10.816;2022-12-01T02:13:58;2.60;99.90
9383;DHT22;4731;49.708;10.816;2022-12-01T02:16:35;2.60;99.90
9383;DHT22;4731;49.708;10.816;2022-12-01T02:19:19;2.60;99.90
9383;DHT22;4731;49.708;10.816;2022-12-01T02:21:57;2.60;99.90
9383;DHT22;4731;49.708;10.816;2022-12-01T02:24:54;2.60;99.90
9383;DHT22;4731;49.708;10.816;2022-12-01T02:27:41;2.60;99.90
9383;DHT22;4731;49.708;10.816;2022-12-01T02:30:13;2.60;99.90
9383;DHT22;4731;49.708;10.816;2022-12-01T02:32:53;2.60;99.90
9383;DHT22;4731;49.708;10.816;2022-12-01T02:35:26;2.60;99.90
9383;DHT22;4731;49.708;10.816;2022-12-01T02:38:02;2.60;99.90
9383;DHT22;4731;49.708;10.816;2022-12-01T02:40:38;2.60;99.90
9383;DHT22;4731;49.708;10.816;2022-12-01T02:43:11;2.60;99.90
9383;DHT22;4731;49.708;10.816;2022-12-01T02:45:44;2.70;99.90
9383;DHT22;4731;49.708;10.816;2022-12-01T02:48:16;2.70;99.90
9383;DHT22;4731;49.708;10.816;2022-12-01T02:50:45;5.50;99.90
9383;DHT22;4731;49.708;10.816;2022-12-01T02:53:14;2.60;99.90
9383;DHT22;4731;49.708;10.816;2022-12-01T02:55:47;2.60;99.90
9383;DHT22;4731;49.708;10.816;2022-12-01T02:58:14;2.60;99.90
9383;DHT22;4731;49.708;10.816;2022-12-01T03:03:51;2.60;99.90
9383;DHT22;4731;49.708;10.816;2022-12-01T03:06:31;2.70;99.90
9383;DHT22;4731;49.708;10.816;2022-12-01T03:09:08;2.70;99.90
9383;DHT22;4731;49.708;10.816;2022-12-01T03:11:42;2.60;99.90
9383;DHT22;4731;49.708;10.816;2022-12-01T03:14:19;2.60;99.90
9383;DHT22;4731;49.708;10.816;2022-12-01T03:16:50;2.60;99.90
9383;DHT22;4731;49.708;10.816;2022-12-01T03:19:25;2.60;99.90
9383;DHT22;4731;49.708;10.816;2022-12-01T03:21:58;2.60;99.90
9383;DHT22;4731;49.708;10.816;2022-12-01T03:24:28;2.50;99.90
9383;DHT22;4731;49.708;10.816;2022-12-01T03:26:58;2.50;99.90
9383;DHT22;4731;49.708;10.816;2022-12-01T03:29:30;2.60;99.90
9383;DHT22;4731;49.708;10.816;2022-12-01T03:32:03;2.60;99.90
9383;DHT22;4731;49.708;10.816;2022-12-01T03:34:36;2.60;99.90
9383;DHT22;4731;49.708;10.816;2022-12-01T03:37:08;4.20;99.90
9383;DHT22;4731;49.708;10.816;2022-12-01T03:39:38;3.50;99.90
9383;DHT22;4731;49.708;10.816;2022-12-01T03:42:11;2.60;99.90
9383;DHT22;4731;49.708;10.816;2022-12-01T03:44:43;2.60;99.90
9383;DHT22;4731;49.708;10.816;2022-12-01T03:47:13;2.60;99.90
9383;DHT22;4731;49.708;10.816;2022-12-01T03:49:43;2.60;99.90
9383;DHT22;4731;49.708;10.816;2022-12-01T03:52:18;2.60;99.90
9383;DHT22;4731;49.708;10.816;2022-12-01T03:54:49;3.10;99.90
9383;DHT22;4731;49.708;10.816;2022-12-01T03:57:22;2.60;99.90
9383;DHT22;4731;49.708;10.816;2022-12-01T03:59:51;2.60;99.90
9383;DHT22;4731;49.708;10.816;2022-12-01T04:04:47;2.60;99.90
9383;DHT22;4731;49.708;10.816;2022-12-01T04:07:13;2.60;99.90
9383;DHT22;4731;49.708;10.816;2022-12-01T04:09:40;2.60;99.90
9383;DHT22;4731;49.708;10.816;2022-12-01T04:12:09;2.60;99.90
9383;DHT22;4731;49.708;10.816;2022-12-01T04:14:55;2.60;99.90
9383;DHT22;4731;49.708;10.816;2022-12-01T04:17:23;2.60;99.90
9383;DHT22;4731;49.708;10.816;2022-12-01T04:19:51;2.60;99.90
9383;DHT22;4731;49.708;10.816;2022-12-01T04:22:18;2.60;99.90
9383;DHT22;4731;49.708;10.816;2022-12-01T04:27:13;2.60;99.90
9383;DHT22;4731;49.708;10.816;2022-12-01T04:29:39;2.60;99.90
9383;DHT22;4731;49.708;10.816;2022-12-01T04:32:06;2.60;99.90
9383;DHT22;4731;49.708;10.816;2022-12-01T04:34:33;2.60;99.90
9383;DHT22;4731;49.708;10.816;2022-12-01T04:37:03;2.60;99.90
9383;DHT22;4731;49.708;10.816;2022-12-01T04:39:30;2.60;99.90
9383;DHT22;4731;49.708;10.816;2022-12-01T04:41:57;2.60;99.90
9383;DHT22;4731;49.708;10.816;2022-12-01T04:44:24;2.60;99.90
9383;DHT22;4731;49.708;10.816;2022-12-01T04:46:51;2.60;99.90
9383;DHT22;4731;49.708;10.816;2022-12-01T04:49:18;4.60;99.90
9383;DHT22;4731;49.708;10.816;2022-12-01T04:51:46;2.60;99.90
9383;DHT22;4731;49.708;10.816;2022-12-01T04:54:15;2.60;99.90
9383;DHT22;4731;49.708;10.816;2022-12-01T04:56:42;5.10;99.90
9383;DHT22;4731;49.708;10.816;2022-12-01T04:59:09;2.60;99.90
9383;DHT22;4731;49.708;10.816;2022-12-01T05:01:36;2.60;99.90
9383;DHT22;4731;49.708;10.816;2022-12-01T05:04:03;2.60;99.90
9383;DHT22;4731;49.708;10.816;2022-12-01T05:06:30;2.60;99.90
9383;DHT22;4731;49.708;10.816;2022-12-01T05:08:58;2.60;99.90
9383;DHT22;4731;49.708;10.816;2022-12-01T05:11:28;2.60;99.90
9383;DHT22;4731;49.708;10.816;2022-12-01T05:13:55;2.60;99.90
9383;DHT22;4731;49.708;10.816;2022-12-01T05:16:23;2.60;99.90
9383;DHT22;4731;49.708;10.816;2022-12-01T05:18:52;2.60;99.90
9383;DHT22;4731;49.708;10.816;2022-12-01T05:21:41;2.60;99.90
9383;DHT22;4731;49.708;10.816;2022-12-01T05:24:08;2.60;99.90
9383;DHT22;4731;49.708;10.816;2022-12-01T05:26:36;2.60;99.90
9383;DHT22;4731;49.708;10.816;2022-12-01T05:29:03;2.60;99.90
9383;DHT22;4731;49.708;10.816;2022-12-01T05:31:32;2.60;99.90
9383;DHT22;4731;49.708;10.816;2022-12-01T05:33:58;2.60;99.90
9383;DHT22;4731;49.708;10.816;2022-12-01T05:36:25;2.60;99.90
9383;DHT22;4731;49.708;10.816;2022-12-01T05:38:52;2.60;99.90
9383;DHT22;4731;49.708;10.816;2022-12-01T05:41:19;2.60;99.90
9383;DHT22;4731;49.708;10.816;2022-12-01T05:43:47;2.60;99.90
9383;DHT22;4731;49.708;10.816;2022-12-01T05:46:14;2.60;99.90
9383;DHT22;4731;49.708;10.816;2022-12-01T05:48:41;2.50;99.90
9383;DHT22;4731;49.708;10.816;2022-12-01T05:51:09;2.60;99.90
9383;DHT22;4731;49.708;10.816;2022-12-01T05:53:36;2.90;99.90
9383;DHT22;4731;49.708;10.816;2022-12-01T05:56:03;2.50;99.90
9383;DHT22;4731;49.708;10.816;2022-12-01T05:58:31;2.50;99.90
9383;DHT22;4731;49.708;10.816;2022-12-01T06:00:59;2.50;99.90
9383;DHT22;4731;49.708;10.816;2022-12-01T06:03:26;2.50;99.90
9383;DHT22;4731;49.708;10.816;2022-12-01T06:05:53;2.60;99.90
9383;DHT22;4731;49.708;10.816;2022-12-01T06:08:20;2.50;99.90
9383;DHT22;4731;49.708;10.816;2022-12-01T06:10:47;2.60;99.90
9383;DHT22;4731;49.708;10.816;2022-12-01T06:13:13;2.60;99.90
9383;DHT22;4731;49.708;10.816;2022-12-01T06:15:40;2.50;99.90
9383;DHT22;4731;49.708;10.816;2022-12-01T06:18:08;2.50;99.90
9383;DHT22;4731;49.708;10.816;2022-12-01T06:20:35;3.80;99.90
9383;DHT22;4731;49.708;10.816;2022-12-01T06:23:02;2.60;99.90
9383;DHT22;4731;49.708;10.816;2022-12-01T06:25:29;2.60;99.90
9383;DHT22;4731;49.708;10.816;2022-12-01T06:27:56;2.60;99.90
9383;DHT22;4731;49.708;10.816;2022-12-01T06:30:23;2.60;99.90
9383;DHT22;4731;49.708;10.816;2022-12-01T06:32:50;2.60;99.90
9383;DHT22;4731;49.708;10.816;2022-12-01T06:35:18;2.50;99.90
9383;DHT22;4731;49.708;10.816;2022-12-01T06:37:45;2.50;99.90
9383;DHT22;4731;49.708;10.816;2022-12-01T06:40:13;2.50;99.90
9383;DHT22;4731;49.708;10.816;2022-12-01T06:42:40;2.50;99.90
9383;DHT22;4731;49.708;10.816;2022-12-01T06:45:07;2.40;99.90
9383;DHT22;4731;49.708;10.816;2022-12-01T06:47:35;2.40;99.90
9383;DHT22;4731;49.708;10.816;2022-12-01T06:50:02;4.70;99.90
9383;DHT22;4731;49.708;10.816;2022-12-01T06:52:31;2.30;99.90
9383;DHT22;4731;49.708;10.816;2022-12-01T06:54:57;2.30;99.90
9383;DHT22;4731;49.708;10.816;2022-12-01T06:57:24;2.30;99.90
9383;DHT22;4731;49.708;10.816;2022-12-01T06:59:51;2.40;99.90
9383;DHT22;4731;49.708;10.816;2022-12-01T07:02:18;2.40;99.90
9383;DHT22;4731;49.708;10.816;2022-12-01T07:04:45;2.40;99.90
9383;DHT22;4731;49.708;10.816;2022-12-01T07:07:12;2.40;99.90
9383;DHT22;4731;49.708;10.816;2022-12-01T07:09:40;2.40;99.90
9383;DHT22;4731;49.708;10.816;2022-12-01T07:12:07;2.90;99.90
9383;DHT22;4731;49.708;10.816;2022-12-01T07:14:34;2.50;99.90
9383;DHT22;4731;49.708;10.816;2022-12-01T07:17:01;2.50;99.90
9383;DHT22;4731;49.708;10.816;2022-12-01T07:19:28;2.50;99.90
9383;DHT22;4731;49.708;10.816;2022-12-01T07:21:55;2.50;99.90
9383;DHT22;4731;49.708;10.816;2022-12-01T07:24:21;2.50;99.90
9383;DHT22;4731;49.708;10.816;2022-12-01T07:26:49;2.60;99.90
9383;DHT22;4731;49.708;10.816;2022-12-01T07:29:16;2.60;99.90
9383;DHT22;4731;49.708;10.816;2022-12-01T07:31:43;2.60;99.90
9383;DHT22;4731;49.708;10.816;2022-12-01T07:34:11;2.60;99.90
9383;DHT22;4731;49.708;10.816;2022-12-01T07:36:38;2.60;99.90
9383;DHT22;4731;49.708;10.816;2022-12-01T07:39:05;2.70;99.90
9383;DHT22;4731;49.708;10.816;2022-12-01T07:41:32;2.70;99.90
9383;DHT22;4731;49.708;10.816;2022-12-01T07:44:01;2.80;99.90
9383;DHT22;4731;49.708;10.816;2022-12-01T07:46:28;2.80;99.90
9383;DHT22;4731;49.708;10.816;2022-12-01T07:48:55;2.80;99.90
9383;DHT22;4731;49.708;10.816;2022-12-01T07:51:24;2.80;99.90
9383;DHT22;4731;49.708;10.816;2022-12-01T07:53:52;2.90;99.90
9383;DHT22;4731;49.708;10.816;2022-12-01T07:56:20;3.00;99.90
9383;DHT22;4731;49.708;10.816;2022-12-01T07:58:47;3.00;99.90
9383;DHT22;4731;49.708;10.816;2022-12-01T08:01:18;3.00;99.90
9383;DHT22;4731;49.708;10.816;2022-12-01T08:03:47;3.00;99.90
9383;DHT22;4731;49.708;10.816;2022-12-01T08:06:17;5.40;99.90
9383;DHT22;4731;49.708;10.816;2022-12-01T08:08:45;3.20;99.90
9383;DHT22;4731;49.708;10.816;2022-12-01T08:11:13;3.30;99.90
9383;DHT22;4731;49.708;10.816;2022-12-01T08:13:41;4.70;99.90
9383;DHT22;4731;49.708;10.816;2022-12-01T08:16:10;4.00;99.90
9383;DHT22;4731;49.708;10.816;2022-12-01T08:18:39;5.10;99.90
9383;DHT22;4731;49.708;10.816;2022-12-01T08:21:08;4.60;99.90
9383;DHT22;4731;49.708;10.816;2022-12-01T08:23:35;6.10;99.90
9383;DHT22;4731;49.708;10.816;2022-12-01T08:26:04;6.10;99.90
9383;DHT22;4731;49.708;10.816;2022-12-01T08:28:33;6.10;99.90
9383;DHT22;4731;49.708;10.816;2022-12-01T08:31:06;5.90;99.90
9383;DHT22;4731;49.708;10.816;2022-12-01T08:33:33;5.70;99.90
9383;DHT22;4731;49.708;10.816;2022-12-01T08:36:02;5.40;99.90
9383;DHT22;4731;49.708;10.816;2022-12-01T08:38:29;5.30;99.90
9383;DHT22;4731;49.708;10.816;2022-12-01T08:40:59;5.10;99.90
9383;DHT22;4731;49.708;10.816;2022-12-01T08:43:26;6.70;99.90
9383;DHT22;4731;49.708;10.816;2022-12-01T08:45:53;5.00;99.90
9383;DHT22;4731;49.708;10.816;2022-12-01T08:48:20;5.20;99.90
9383;DHT22;4731;49.708;10.816;2022-12-01T08:50:46;5.20;99.90
9383;DHT22;4731;49.708;10.816;2022-12-01T08:53:14;5.20;99.90
9383;DHT22;4731;49.708;10.816;2022-12-01T08:55:41;5.80;99.90
9383;DHT22;4731;49.708;10.816;2022-12-01T08:58:08;5.20;99.90
9383;DHT22;4731;49.708;10.816;2022-12-01T09:00:35;5.20;99.90
9383;DHT22;4731;49.708;10.816;2022-12-01T09:03:02;5.30;99.90
9383;DHT22;4731;49.708;10.816;2022-12-01T09:05:28;5.50;99.90
9383;DHT22;4731;49.708;10.816;2022-12-01T09:07:55;6.20;99.90
9383;DHT22;4731;49.708;10.816;2022-12-01T09:10:38;5.50;99.90
9383;DHT22;4731;49.708;10.816;2022-12-01T09:15:32;6.00;99.90
9383;DHT22;4731;49.708;10.816;2022-12-01T09:17:59;7.10;99.90
9383;DHT22;4731;49.708;10.816;2022-12-01T09:20:26;6.20;99.90
9383;DHT22;4731;49.708;10.816;2022-12-01T09:22:52;6.60;99.90
9383;DHT22;4731;49.708;10.816;2022-12-01T09:25:19;6.30;99.90
9383;DHT22;4731;49.708;10.816;2022-12-01T09:27:47;8.60;99.90
9383;DHT22;4731;49.708;10.816;2022-12-01T09:30:14;7.30;99.90
9383;DHT22;4731;49.708;10.816;2022-12-01T09:32:42;5.90;99.90
9383;DHT22;4731;49.708;10.816;2022-12-01T09:35:08;6.00;99.90
9383;DHT22;4731;49.708;10.816;2022-12-01T09:37:35;9.00;99.90
9383;DHT22;4731;49.708;10.816;2022-12-01T09:40:03;6.00;99.90
9383;DHT22;4731;49.708;10.816;2022-12-01T09:42:30;6.00;99.90
9383;DHT22;4731;49.708;10.816;2022-12-01T09:44:59;5.90;99.90
9383;DHT22;4731;49.708;10.816;2022-12-01T09:47:30;5.90;99.90
9383;DHT22;4731;49.708;10.816;2022-12-01T09:49:59;5.70;99.90
9383;DHT22;4731;49.708;10.816;2022-12-01T09:52:32;5.70;99.90
9383;DHT22;4731;49.708;10.816;2022-12-01T09:55:00;5.80;99.90
9383;DHT22;4731;49.708;10.816;2022-12-01T09:57:32;6.00;99.90
9383;DHT22;4731;49.708;10.816;2022-12-01T10:00:05;5.80;99.90
9383;DHT22;4731;49.708;10.816;2022-12-01T10:02:35;5.90;99.90
9383;DHT22;4731;49.708;10.816;2022-12-01T10:05:05;6.10;99.90
9383;DHT22;4731;49.708;10.816;2022-12-01T10:07:37;6.10;99.90
9383;DHT22;4731;49.708;10.816;2022-12-01T10:10:09;9.00;99.90
9383;DHT22;4731;49.708;10.816;2022-12-01T10:12:39;6.60;99.90
9383;DHT22;4731;49.708;10.816;2022-12-01T10:15:17;7.80;99.90
9383;DHT22;4731;49.708;10.816;2022-12-01T10:18:09;7.30;99.90
9383;DHT22;4731;49.708;10.816;2022-12-01T10:20:43;8.00;99.90
9383;DHT22;4731;49.708;10.816;2022-12-01T10:23:29;10.10;99.90
9383;DHT22;4731;49.708;10.816;2022-12-01T10:26:06;9.10;99.90
9383;DHT22;4731;49.708;10.816;2022-12-01T10:28:54;9.50;99.90
9383;DHT22;4731;49.708;10.816;2022-12-01T10:31:33;10.60;99.90
9383;DHT22;4731;49.708;10.816;2022-12-01T10:34:02;9.50;99.90
9383;DHT22;4731;49.708;10.816;2022-12-01T10:36:32;9.50;99.90
9383;DHT22;4731;49.708;10.816;2022-12-01T10:38:59;9.90;99.90
9383;DHT22;4731;49.708;10.816;2022-12-01T10:41:30;12.50;99.90
9383;DHT22;4731;49.708;10.816;2022-12-01T10:43:58;10.80;99.90
9383;DHT22;4731;49.708;10.816;2022-12-01T10:46:32;10.90;99.90
9383;DHT22;4731;49.708;10.816;2022-12-01T10:49:07;10.80;99.90
9383;DHT22;4731;49.708;10.816;2022-12-01T10:51:47;10.30;99.90
9383;DHT22;4731;49.708;10.816;2022-12-01T10:54:14;10.00;99.90
9383;DHT22;4731;49.708;10.816;2022-12-01T10:56:43;9.50;99.90
9383;DHT22;4731;49.708;10.816;2022-12-01T10:59:24;9.70;99.90
9383;DHT22;4731;49.708;10.816;2022-12-01T11:01:53;8.70;99.90
9383;DHT22;4731;49.708;10.816;2022-12-01T11:04:34;8.80;99.90
9383;DHT22;4731;49.708;10.816;2022-12-01T11:07:03;8.60;99.90
9383;DHT22;4731;49.708;10.816;2022-12-01T11:09:30;8.70;99.90
9383;DHT22;4731;49.708;10.816;2022-12-01T11:11:58;8.70;99.90
9383;DHT22;4731;49.708;10.816;2022-12-01T11:14:32;8.70;99.90
9383;DHT22;4731;49.708;10.816;2022-12-01T11:19:57;8.90;99.90
9383;DHT22;4731;49.708;10.816;2022-12-01T11:22:25;9.30;99.90
9383;DHT22;4731;49.708;10.816;2022-12-01T11:24:59;9.80;99.90
9383;DHT22;4731;49.708;10.816;2022-12-01T11:27:29;10.30;99.90
9383;DHT22;4731;49.708;10.816;2022-12-01T11:29:58;13.70;99.90
9383;DHT22;4731;49.708;10.816;2022-12-01T11:32:30;14.00;99.90
9383;DHT22;4731;49.708;10.816;2022-12-01T11:34:59;17.60;99.90
9383;DHT22;4731;49.708;10.816;2022-12-01T11:37:28;17.70;99.90
9383;DHT22;4731;49.708;10.816;2022-12-01T11:40:05;19.10;99.90
9383;DHT22;4731;49.708;10.816;2022-12-01T11:42:33;20.40;99.90
9383;DHT22;4731;49.708;10.816;2022-12-01T11:45:07;20.40;99.90
9383;DHT22;4731;49.708;10.816;2022-12-01T11:48:02;21.40;99.90
9383;DHT22;4731;49.708;10.816;2022-12-01T11:50:32;18.20;99.90
9383;DHT22;4731;49.708;10.816;2022-12-01T11:52:59;18.10;99.90
9383;DHT22;4731;49.708;10.816;2022-12-01T11:55:27;18.30;99.90
9383;DHT22;4731;49.708;10.816;2022-12-01T11:57:57;20.00;99.90
9383;DHT22;4731;49.708;10.816;2022-12-01T12:00:27;21.70;99.90
9383;DHT22;4731;49.708;10.816;2022-12-01T12:03:08;19.50;99.90
9383;DHT22;4731;49.708;10.816;2022-12-01T12:06:06;19.50;99.90
9383;DHT22;4731;49.708;10.816;2022-12-01T12:08:44;18.20;99.90
9383;DHT22;4731;49.708;10.816;2022-12-01T12:11:18;16.60;99.90
9383;DHT22;4731;49.708;10.816;2022-12-01T12:13:58;15.30;99.90
9383;DHT22;4731;49.708;10.816;2022-12-01T12:16:35;13.40;99.90
9383;DHT22;4731;49.708;10.816;2022-12-01T12:19:24;13.40;99.90
9383;DHT22;4731;49.708;10.816;2022-12-01T12:22:04;13.10;99.90
9383;DHT22;4731;49.708;10.816;2022-12-01T12:24:43;13.40;99.90
9383;DHT22;4731;49.708;10.816;2022-12-01T12:27:17;13.30;99.90
9383;DHT22;4731;49.708;10.816;2022-12-01T12:29:54;13.00;99.90
9383;DHT22;4731;49.708;10.816;2022-12-01T12:32:34;11.50;99.90
9383;DHT22;4731;49.708;10.816;2022-12-01T12:35:12;11.50;99.90
9383;DHT22;4731;49.708;10.816;2022-12-01T12:38:01;11.20;99.90
9383;DHT22;4731;49.708;10.816;2022-12-01T12:40:41;10.70;99.90
9383;DHT22;4731;49.708;10.816;2022-12-01T12:43:20;10.30;99.90
9383;DHT22;4731;49.708;10.816;2022-12-01T12:45:56;9.90;99.90
9383;DHT22;4731;49.708;10.816;2022-12-01T12:51:26;10.10;99.90
9383;DHT22;4731;49.708;10.816;2022-12-01T12:53:58;10.50;99.90
9383;DHT22;4731;49.708;10.816;2022-12-01T12:56:29;11.30;99.90
9383;DHT22;4731;49.708;10.816;2022-12-01T12:58:59;10.40;99.90
9383;DHT22;4731;49.708;10.816;2022-12-01T13:01:29;13.00;99.90
9383;DHT22;4731;49.708;10.816;2022-12-01T13:04:00;10.30;99.90
9383;DHT22;4731;49.708;10.816;2022-12-01T13:06:41;10.50;99.90
9383;DHT22;4731;49.708;10.816;2022-12-01T13:09:13;10.60;99.90
9383;DHT22;4731;49.708;10.816;2022-12-01T13:11:44;10.60;99.90
9383;DHT22;4731;49.708;10.816;2022-12-01T13:14:16;10.60;99.90
9383;DHT22;4731;49.708;10.816;2022-12-01T13:16:47;10.30;99.90
9383;DHT22;4731;49.708;10.816;2022-12-01T13:19:17;10.50;99.90
9383;DHT22;4731;49.708;10.816;2022-12-01T13:21:49;10.70;99.90
9383;DHT22;4731;49.708;10.816;2022-12-01T13:24:17;10.90;99.90
9383;DHT22;4731;49.708;10.816;2022-12-01T13:26:48;10.90;99.90
9383;DHT22;4731;49.708;10.816;2022-12-01T13:29:17;11.40;99.90
9383;DHT22;4731;49.708;10.816;2022-12-01T13:31:46;11.80;99.90
9383;DHT22;4731;49.708;10.816;2022-12-01T13:34:19;12.90;99.90
9383;DHT22;4731;49.708;10.816;2022-12-01T13:36:51;14.90;99.90
9383;DHT22;4731;49.708;10.816;2022-12-01T13:39:20;16.00;99.90
9383;DHT22;4731;49.708;10.816;2022-12-01T13:41:58;16.60;99.90
9383;DHT22;4731;49.708;10.816;2022-12-01T13:44:27;17.00;99.90
9383;DHT22;4731;49.708;10.816;2022-12-01T13:46:58;17.10;99.90
9383;DHT22;4731;49.708;10.816;2022-12-01T13:49:39;17.30;99.90
9383;DHT22;4731;49.708;10.816;2022-12-01T13:52:27;16.20;99.90
9383;DHT22;4731;49.708;10.816;2022-12-01T13:55:23;16.60;99.90
9383;DHT22;4731;49.708;10.816;2022-12-01T13:58:21;13.70;99.90
9383;DHT22;4731;49.708;10.816;2022-12-01T14:00:48;12.60;99.90
9383;DHT22;4731;49.708;10.816;2022-12-01T14:03:37;11.50;99.90
9383;DHT22;4731;49.708;10.816;2022-12-01T14:06:07;10.50;99.90
9383;DHT22;4731;49.708;10.816;2022-12-01T14:08:38;10.40;99.90
9383;DHT22;4731;49.708;10.816;2022-12-01T14:11:19;9.90;99.90
9383;DHT22;4731;49.708;10.816;2022-12-01T14:13:51;10.20;99.90
9383;DHT22;4731;49.708;10.816;2022-12-01T14:16:19;9.40;99.90
9383;DHT22;4731;49.708;10.816;2022-12-01T14:18:49;8.60;99.90
9383;DHT22;4731;49.708;10.816;2022-12-01T14:21:16;8.60;99.90
9383;DHT22;4731;49.708;10.816;2022-12-01T14:24:06;8.10;99.90
9383;DHT22;4731;49.708;10.816;2022-12-01T14:26:42;7.90;99.90
9383;DHT22;4731;49.708;10.816;2022-12-01T14:29:33;9.20;99.90
9383;DHT22;4731;49.708;10.816;2022-12-01T14:32:23;7.70;99.90
9383;DHT22;4731;49.708;10.816;2022-12-01T14:34:57;7.70;99.90
9383;DHT22;4731;49.708;10.816;2022-12-01T14:37:31;7.70;99.90
9383;DHT22;4731;49.708;10.816;2022-12-01T14:40:06;7.70;99.90
9383;DHT22;4731;49.708;10.816;2022-12-01T14:42:36;7.60;99.90
9383;DHT22;4731;49.708;10.816;2022-12-01T14:45:24;7.50;99.90
9383;DHT22;4731;49.708;10.816;2022-12-01T14:47:59;7.30;99.90
9383;DHT22;4731;49.708;10.816;2022-12-01T14:50:35;7.00;99.90
9383;DHT22;4731;49.708;10.816;2022-12-01T14:53:11;7.00;99.90
9383;DHT22;4731;49.708;10.816;2022-12-01T14:55:46;6.90;99.90
9383;DHT22;4731;49.708;10.816;2022-12-01T14:58:17;8.50;99.90
9383;DHT22;4731;49.708;10.816;2022-12-01T15:00:55;8.70;99.90
9383;DHT22;4731;49.708;10.816;2022-12-01T15:03:23;6.60;99.90
9383;DHT22;4731;49.708;10.816;2022-12-01T15:05:50;7.60;99.90
9383;DHT22;4731;49.708;10.816;2022-12-01T15:08:20;6.50;99.90
9383;DHT22;4731;49.708;10.816;2022-12-01T15:10:51;9.90;99.90
9383;DHT22;4731;49.708;10.816;2022-12-01T15:13:21;6.30;99.90
9383;DHT22;4731;49.708;10.816;2022-12-01T15:15:49;6.20;99.90
9383;DHT22;4731;49.708;10.816;2022-12-01T15:18:21;6.10;99.90
9383;DHT22;4731;49.708;10.816;2022-12-01T15:20:49;6.10;99.90
9383;DHT22;4731;49.708;10.816;2022-12-01T15:23:21;6.00;99.90
9383;DHT22;4731;49.708;10.816;2022-12-01T15:25:50;5.80;99.90
9383;DHT22;4731;49.708;10.816;2022-12-01T15:28:20;5.80;99.90
9383;DHT22;4731;49.708;10.816;2022-12-01T15:30:49;5.80;99.90
9383;DHT22;4731;49.708;10.816;2022-12-01T15:33:20;5.70;99.90
9383;DHT22;4731;49.708;10.816;2022-12-01T15:35:47;5.50;99.90
9383;DHT22;4731;49.708;10.816;2022-12-01T15:38:17;5.50;99.90
9383;DHT22;4731;49.708;10.816;2022-12-01T15:40:45;5.50;99.90
9383;DHT22;4731;49.708;10.816;2022-12-01T15:43:17;5.40;99.90
9383;DHT22;4731;49.708;10.816;2022-12-01T15:45:47;5.40;99.90
9383;DHT22;4731;49.708;10.816;2022-12-01T15:48:16;5.30;99.90
9383;DHT22;4731;49.708;10.816;2022-12-01T15:50:48;5.30;99.90
9383;DHT22;4731;49.708;10.816;2022-12-01T15:53:25;5.30;99.90
9383;DHT22;4731;49.708;10.816;2022-12-01T15:55:54;5.20;99.90
9383;DHT22;4731;49.708;10.816;2022-12-01T15:58:25;5.10;99.90
9383;DHT22;4731;49.708;10.816;2022-12-01T16:00:58;5.20;99.90
9383;DHT22;4731;49.708;10.816;2022-12-01T16:03:26;5.20;99.90
9383;DHT22;4731;49.708;10.816;2022-12-01T16:05:54;5.10;99.90
9383;DHT22;4731;49.708;10.816;2022-12-01T16:08:24;5.10;99.90
9383;DHT22;4731;49.708;10.816;2022-12-01T16:11:13;5.10;99.90
9383;DHT22;4731;49.708;10.816;2022-12-01T16:13:46;5.10;99.90
9383;DHT22;4731;49.708;10.816;2022-12-01T16:16:38;5.10;99.90
9383;DHT22;4731;49.708;10.816;2022-12-01T16:19:24;5.10;99.90
9383;DHT22;4731;49.708;10.816;2022-12-01T16:21:54;5.10;99.90
9383;DHT22;4731;49.708;10.816;2022-12-01T16:24:27;5.10;99.90
9383;DHT22;4731;49.708;10.816;2022-12-01T16:26:57;8.70;99.90
9383;DHT22;4731;49.708;10.816;2022-12-01T16:29:27;5.10;99.90
9383;DHT22;4731;49.708;10.816;2022-12-01T16:31:55;5.10;99.90
9383;DHT22;4731;49.708;10.816;2022-12-01T16:34:26;5.00;99.90
9383;DHT22;4731;49.708;10.816;2022-12-01T16:36:53;5.00;99.90
9383;DHT22;4731;49.708;10.816;2022-12-01T16:39:19;5.00;99.90
9383;DHT22;4731;49.708;10.816;2022-12-01T16:41:46;5.90;99.90